首页
METAR-TAF:

METAR-TAF

机场 :

地拉那特蕾莎修女國際機場

地拉那, 阿尔巴尼亚

纬度: 41-20N, 经度: 019-47E, 海拔: 89米

当前天气观测

该预报发布于36分钟前的10:50 UTC
风速4节,风向南转南东,在东转东南之间变化
温度 12°C
湿度 62%
气压 1021 hPa
能见度10公里或以上
少量云层高于3800英尺
多云层高于5000英尺
多云层高于7200英尺

METAR: LATI 191050Z 15004KT 120V180 9999 FEW038 BKN050 BKN072 12/05 Q1021 NOSIG

时间: 12:26 (11:26 UTC)

预报

该预报发布于6小时和26分钟前的05:00 UTC
预报有效从19日的 06点(UTC)到 20日的 06点(UTC)
风速5节,风向多变
能見度: 4000
散云层高于3000英尺
阴天层高于6000英尺
成为
从 19日的 08点(UTC)到 19日的 10点(UTC)
能见度10公里或以上
少量云层高于6000英尺
散云层高于10000英尺
成为
从 19日的 16点(UTC)到 19日的 18点(UTC)
能見度: 2000
碎片雾

TAF: LATI 190500Z 1906/2006 VRB05KT 4000 RA SCT030 OVC060 BECMG 1908/1910 9999 FEW060 SCT100 BECMG 1916/1918 2000 BCFG NSC

超过4000个机场的气象观测和天气预报(METAR&TAF报告)。

可查询的气象台以黄色和红色小点在地图上表示。

将鼠标移到小点上方,可查看气象台名称。

然后点击查看天气观测和预报。

如需切换地图:点击带黑十字的绿色按钮放大地图;点击带横线的绿色按钮缩小地图;或者点击绿色箭头查看邻近地区的地图。


METAR-TAF: